sensor_id;sensor_type;location;lat;lon;timestamp;P1;durP1;ratioP1;P2;durP2;ratioP2
71572;SDS011;59408;51.032;9.410;2023-02-01T00:00:14;10.68;;;4.35;;
71572;SDS011;59408;51.032;9.410;2023-02-01T00:02:42;13.50;;;4.65;;
71572;SDS011;59408;51.032;9.410;2023-02-01T00:05:09;12.73;;;4.33;;
71572;SDS011;59408;51.032;9.410;2023-02-01T00:07:36;16.55;;;4.95;;
71572;SDS011;59408;51.032;9.410;2023-02-01T00:10:04;12.15;;;5.10;;
71572;SDS011;59408;51.032;9.410;2023-02-01T00:12:31;15.05;;;5.50;;
71572;SDS011;59408;51.032;9.410;2023-02-01T00:14:59;14.50;;;4.85;;
71572;SDS011;59408;51.032;9.410;2023-02-01T00:17:25;13.03;;;4.93;;
71572;SDS011;59408;51.032;9.410;2023-02-01T00:19:53;14.48;;;4.97;;
71572;SDS011;59408;51.032;9.410;2023-02-01T00:22:20;15.70;;;4.82;;
71572;SDS011;59408;51.032;9.410;2023-02-01T00:24:46;16.95;;;5.20;;
71572;SDS011;59408;51.032;9.410;2023-02-01T00:27:13;13.52;;;5.35;;
71572;SDS011;59408;51.032;9.410;2023-02-01T00:29:39;12.23;;;4.53;;
71572;SDS011;59408;51.032;9.410;2023-02-01T00:32:06;14.15;;;5.10;;
71572;SDS011;59408;51.032;9.410;2023-02-01T00:34:33;13.18;;;4.85;;
71572;SDS011;59408;51.032;9.410;2023-02-01T00:37:01;14.40;;;4.72;;
71572;SDS011;59408;51.032;9.410;2023-02-01T00:39:27;14.13;;;5.03;;
71572;SDS011;59408;51.032;9.410;2023-02-01T00:41:54;12.60;;;5.23;;
71572;SDS011;59408;51.032;9.410;2023-02-01T00:44:20;11.10;;;4.80;;
71572;SDS011;59408;51.032;9.410;2023-02-01T00:46:47;13.13;;;4.82;;
71572;SDS011;59408;51.032;9.410;2023-02-01T00:49:14;11.10;;;4.70;;
71572;SDS011;59408;51.032;9.410;2023-02-01T00:51:41;15.38;;;4.95;;
71572;SDS011;59408;51.032;9.410;2023-02-01T00:54:08;13.70;;;5.50;;
71572;SDS011;59408;51.032;9.410;2023-02-01T00:56:35;14.65;;;5.20;;
71572;SDS011;59408;51.032;9.410;2023-02-01T00:59:02;12.15;;;4.32;;
71572;SDS011;59408;51.032;9.410;2023-02-01T01:01:28;13.13;;;4.70;;
71572;SDS011;59408;51.032;9.410;2023-02-01T01:03:55;16.10;;;5.35;;
71572;SDS011;59408;51.032;9.410;2023-02-01T01:06:24;13.80;;;5.20;;
71572;SDS011;59408;51.032;9.410;2023-02-01T01:08:52;16.98;;;5.93;;
71572;SDS011;59408;51.032;9.410;2023-02-01T01:11:21;14.05;;;4.75;;
71572;SDS011;59408;51.032;9.410;2023-02-01T01:13:50;14.30;;;4.80;;
71572;SDS011;59408;51.032;9.410;2023-02-01T01:16:18;13.00;;;4.88;;
71572;SDS011;59408;51.032;9.410;2023-02-01T01:18:46;13.47;;;5.30;;
71572;SDS011;59408;51.032;9.410;2023-02-01T01:21:14;13.55;;;5.60;;
71572;SDS011;59408;51.032;9.410;2023-02-01T01:23:42;15.07;;;5.63;;
71572;SDS011;59408;51.032;9.410;2023-02-01T01:26:10;14.77;;;4.95;;
71572;SDS011;59408;51.032;9.410;2023-02-01T01:28:40;13.30;;;5.03;;
71572;SDS011;59408;51.032;9.410;2023-02-01T01:31:07;14.10;;;5.43;;
71572;SDS011;59408;51.032;9.410;2023-02-01T01:33:35;12.77;;;4.70;;
71572;SDS011;59408;51.032;9.410;2023-02-01T01:36:01;16.20;;;4.72;;
71572;SDS011;59408;51.032;9.410;2023-02-01T01:38:30;15.48;;;4.82;;
71572;SDS011;59408;51.032;9.410;2023-02-01T01:40:56;16.48;;;5.15;;
71572;SDS011;59408;51.032;9.410;2023-02-01T01:43:23;12.87;;;4.27;;
71572;SDS011;59408;51.032;9.410;2023-02-01T01:45:51;12.52;;;5.07;;
71572;SDS011;59408;51.032;9.410;2023-02-01T01:48:18;13.07;;;4.85;;
71572;SDS011;59408;51.032;9.410;2023-02-01T01:50:51;17.83;;;5.25;;
71572;SDS011;59408;51.032;9.410;2023-02-01T01:53:24;12.90;;;4.78;;
71572;SDS011;59408;51.032;9.410;2023-02-01T01:55:54;14.77;;;4.93;;
71572;SDS011;59408;51.032;9.410;2023-02-01T01:58:23;15.88;;;4.68;;
71572;SDS011;59408;51.032;9.410;2023-02-01T02:00:56;12.55;;;4.90;;
71572;SDS011;59408;51.032;9.410;2023-02-01T02:03:23;11.10;;;3.90;;
71572;SDS011;59408;51.032;9.410;2023-02-01T02:05:53;15.98;;;4.82;;
71572;SDS011;59408;51.032;9.410;2023-02-01T02:08:23;10.90;;;4.70;;
71572;SDS011;59408;51.032;9.410;2023-02-01T02:10:52;16.98;;;5.20;;
71572;SDS011;59408;51.032;9.410;2023-02-01T02:13:19;16.95;;;6.00;;
71572;SDS011;59408;51.032;9.410;2023-02-01T02:15:48;13.75;;;4.93;;
71572;SDS011;59408;51.032;9.410;2023-02-01T02:18:27;14.43;;;4.55;;
71572;SDS011;59408;51.032;9.410;2023-02-01T02:21:14;14.60;;;4.77;;
71572;SDS011;59408;51.032;9.410;2023-02-01T02:27:09;12.30;;;4.38;;
71572;SDS011;59408;51.032;9.410;2023-02-01T02:36:17;13.53;;;4.40;;
71572;SDS011;59408;51.032;9.410;2023-02-01T02:38:52;15.55;;;4.28;;
71572;SDS011;59408;51.032;9.410;2023-02-01T02:41:27;11.23;;;4.45;;
71572;SDS011;59408;51.032;9.410;2023-02-01T02:43:59;12.90;;;4.78;;
71572;SDS011;59408;51.032;9.410;2023-02-01T02:46:32;14.23;;;4.72;;
71572;SDS011;59408;51.032;9.410;2023-02-01T02:49:04;11.40;;;4.40;;
71572;SDS011;59408;51.032;9.410;2023-02-01T02:51:37;11.68;;;4.20;;
71572;SDS011;59408;51.032;9.410;2023-02-01T02:54:10;9.95;;;3.60;;
71572;SDS011;59408;51.032;9.410;2023-02-01T02:56:39;12.27;;;4.60;;
71572;SDS011;59408;51.032;9.410;2023-02-01T02:59:07;13.68;;;5.28;;
71572;SDS011;59408;51.032;9.410;2023-02-01T03:01:37;13.27;;;4.53;;
71572;SDS011;59408;51.032;9.410;2023-02-01T03:04:05;12.45;;;4.45;;
71572;SDS011;59408;51.032;9.410;2023-02-01T03:06:31;12.75;;;4.40;;
71572;SDS011;59408;51.032;9.410;2023-02-01T03:09:00;15.73;;;4.50;;
71572;SDS011;59408;51.032;9.410;2023-02-01T03:11:30;14.50;;;4.38;;
71572;SDS011;59408;51.032;9.410;2023-02-01T03:13:59;17.50;;;5.20;;
71572;SDS011;59408;51.032;9.410;2023-02-01T03:16:30;13.98;;;5.00;;
71572;SDS011;59408;51.032;9.410;2023-02-01T03:19:01;15.57;;;5.43;;
71572;SDS011;59408;51.032;9.410;2023-02-01T03:21:31;15.35;;;5.18;;
71572;SDS011;59408;51.032;9.410;2023-02-01T03:24:04;12.57;;;4.28;;
71572;SDS011;59408;51.032;9.410;2023-02-01T03:26:36;12.73;;;5.20;;
71572;SDS011;59408;51.032;9.410;2023-02-01T03:29:08;14.93;;;5.03;;
71572;SDS011;59408;51.032;9.410;2023-02-01T03:31:40;15.40;;;4.72;;
71572;SDS011;59408;51.032;9.410;2023-02-01T03:34:07;16.15;;;4.72;;
71572;SDS011;59408;51.032;9.410;2023-02-01T03:36:35;14.25;;;4.90;;
71572;SDS011;59408;51.032;9.410;2023-02-01T03:39:11;15.23;;;4.87;;
71572;SDS011;59408;51.032;9.410;2023-02-01T03:41:44;13.77;;;4.53;;
71572;SDS011;59408;51.032;9.410;2023-02-01T03:44:16;13.80;;;4.85;;
71572;SDS011;59408;51.032;9.410;2023-02-01T03:46:47;16.02;;;4.68;;
71572;SDS011;59408;51.032;9.410;2023-02-01T03:49:18;14.07;;;4.45;;
71572;SDS011;59408;51.032;9.410;2023-02-01T03:51:50;14.73;;;4.80;;
71572;SDS011;59408;51.032;9.410;2023-02-01T03:54:19;13.93;;;4.35;;
71572;SDS011;59408;51.032;9.410;2023-02-01T03:56:47;12.40;;;4.47;;
71572;SDS011;59408;51.032;9.410;2023-02-01T03:59:14;10.70;;;4.75;;
71572;SDS011;59408;51.032;9.410;2023-02-01T04:01:41;13.45;;;4.28;;
71572;SDS011;59408;51.032;9.410;2023-02-01T04:04:08;14.47;;;4.70;;
71572;SDS011;59408;51.032;9.410;2023-02-01T04:06:35;15.85;;;4.63;;
71572;SDS011;59408;51.032;9.410;2023-02-01T04:09:01;13.05;;;4.22;;
71572;SDS011;59408;51.032;9.410;2023-02-01T04:11:30;11.70;;;4.40;;
71572;SDS011;59408;51.032;9.410;2023-02-01T04:13:56;14.70;;;3.97;;
71572;SDS011;59408;51.032;9.410;2023-02-01T04:16:23;12.93;;;4.20;;
71572;SDS011;59408;51.032;9.410;2023-02-01T04:18:49;12.55;;;3.40;;
71572;SDS011;59408;51.032;9.410;2023-02-01T04:21:16;15.77;;;4.40;;
71572;SDS011;59408;51.032;9.410;2023-02-01T04:23:43;15.90;;;4.32;;
71572;SDS011;59408;51.032;9.410;2023-02-01T04:26:09;13.82;;;4.55;;
71572;SDS011;59408;51.032;9.410;2023-02-01T04:28:37;13.10;;;4.20;;
71572;SDS011;59408;51.032;9.410;2023-02-01T04:31:04;12.82;;;4.13;;
71572;SDS011;59408;51.032;9.410;2023-02-01T04:33:30;13.80;;;3.78;;
71572;SDS011;59408;51.032;9.410;2023-02-01T04:35:57;13.20;;;4.57;;
71572;SDS011;59408;51.032;9.410;2023-02-01T04:38:23;14.85;;;4.03;;
71572;SDS011;59408;51.032;9.410;2023-02-01T04:40:50;13.67;;;4.10;;
71572;SDS011;59408;51.032;9.410;2023-02-01T04:43:17;13.23;;;3.95;;
71572;SDS011;59408;51.032;9.410;2023-02-01T04:45:47;14.20;;;4.15;;
71572;SDS011;59408;51.032;9.410;2023-02-01T04:48:15;13.57;;;4.88;;
71572;SDS011;59408;51.032;9.410;2023-02-01T04:50:42;11.55;;;4.07;;
71572;SDS011;59408;51.032;9.410;2023-02-01T04:53:09;12.00;;;3.90;;
71572;SDS011;59408;51.032;9.410;2023-02-01T04:55:36;13.30;;;3.83;;
71572;SDS011;59408;51.032;9.410;2023-02-01T04:58:03;12.20;;;3.53;;
71572;SDS011;59408;51.032;9.410;2023-02-01T05:00:29;11.25;;;3.78;;
71572;SDS011;59408;51.032;9.410;2023-02-01T05:02:57;12.05;;;3.80;;
71572;SDS011;59408;51.032;9.410;2023-02-01T05:05:24;11.03;;;3.63;;
71572;SDS011;59408;51.032;9.410;2023-02-01T05:07:51;13.50;;;3.63;;
71572;SDS011;59408;51.032;9.410;2023-02-01T05:10:18;11.50;;;3.65;;
71572;SDS011;59408;51.032;9.410;2023-02-01T05:12:44;12.75;;;3.28;;
71572;SDS011;59408;51.032;9.410;2023-02-01T05:15:11;10.10;;;3.33;;
71572;SDS011;59408;51.032;9.410;2023-02-01T05:17:37;10.13;;;3.30;;
71572;SDS011;59408;51.032;9.410;2023-02-01T05:20:06;11.20;;;3.13;;
71572;SDS011;59408;51.032;9.410;2023-02-01T05:22:33;10.43;;;3.42;;
71572;SDS011;59408;51.032;9.410;2023-02-01T05:25:00;11.23;;;2.85;;
71572;SDS011;59408;51.032;9.410;2023-02-01T05:27:28;10.77;;;3.38;;
71572;SDS011;59408;51.032;9.410;2023-02-01T05:29:55;10.80;;;3.27;;
71572;SDS011;59408;51.032;9.410;2023-02-01T05:32:21;9.13;;;3.30;;
71572;SDS011;59408;51.032;9.410;2023-02-01T05:34:48;10.10;;;2.90;;
71572;SDS011;59408;51.032;9.410;2023-02-01T05:37:17;12.13;;;2.95;;
71572;SDS011;59408;51.032;9.410;2023-02-01T05:39:43;9.50;;;2.70;;
71572;SDS011;59408;51.032;9.410;2023-02-01T05:42:10;10.83;;;2.80;;
71572;SDS011;59408;51.032;9.410;2023-02-01T05:44:36;14.05;;;3.15;;
71572;SDS011;59408;51.032;9.410;2023-02-01T05:47:03;14.02;;;3.03;;
71572;SDS011;59408;51.032;9.410;2023-02-01T05:49:30;9.70;;;2.60;;
71572;SDS011;59408;51.032;9.410;2023-02-01T05:51:57;9.85;;;2.60;;
71572;SDS011;59408;51.032;9.410;2023-02-01T05:54:27;9.57;;;2.40;;
71572;SDS011;59408;51.032;9.410;2023-02-01T05:56:53;9.82;;;2.35;;
71572;SDS011;59408;51.032;9.410;2023-02-01T05:59:20;10.48;;;2.63;;
71572;SDS011;59408;51.032;9.410;2023-02-01T06:01:47;9.27;;;2.97;;
71572;SDS011;59408;51.032;9.410;2023-02-01T06:04:13;9.43;;;2.65;;
71572;SDS011;59408;51.032;9.410;2023-02-01T06:06:40;11.43;;;2.70;;
71572;SDS011;59408;51.032;9.410;2023-02-01T06:09:07;11.90;;;3.17;;
71572;SDS011;59408;51.032;9.410;2023-02-01T06:11:35;12.80;;;3.03;;
71572;SDS011;59408;51.032;9.410;2023-02-01T06:14:01;15.23;;;3.28;;
71572;SDS011;59408;51.032;9.410;2023-02-01T06:16:28;10.45;;;2.60;;
71572;SDS011;59408;51.032;9.410;2023-02-01T06:18:54;11.03;;;2.40;;
71572;SDS011;59408;51.032;9.410;2023-02-01T06:21:21;9.65;;;2.45;;
71572;SDS011;59408;51.032;9.410;2023-02-01T06:23:48;12.07;;;2.70;;
71572;SDS011;59408;51.032;9.410;2023-02-01T06:26:14;7.78;;;2.47;;
71572;SDS011;59408;51.032;9.410;2023-02-01T06:28:42;11.45;;;2.83;;
71572;SDS011;59408;51.032;9.410;2023-02-01T06:31:09;10.03;;;2.53;;
71572;SDS011;59408;51.032;9.410;2023-02-01T06:33:36;7.88;;;2.20;;
71572;SDS011;59408;51.032;9.410;2023-02-01T06:36:04;11.40;;;2.50;;
71572;SDS011;59408;51.032;9.410;2023-02-01T06:38:32;11.40;;;2.47;;
71572;SDS011;59408;51.032;9.410;2023-02-01T06:40:59;15.43;;;3.53;;
71572;SDS011;59408;51.032;9.410;2023-02-01T06:43:27;12.53;;;2.87;;
71572;SDS011;59408;51.032;9.410;2023-02-01T06:45:58;12.60;;;2.80;;
71572;SDS011;59408;51.032;9.410;2023-02-01T06:48:26;16.40;;;2.75;;
71572;SDS011;59408;51.032;9.410;2023-02-01T06:50:52;9.88;;;3.13;;
71572;SDS011;59408;51.032;9.410;2023-02-01T06:53:19;13.73;;;3.05;;
71572;SDS011;59408;51.032;9.410;2023-02-01T06:55:51;9.80;;;2.90;;
71572;SDS011;59408;51.032;9.410;2023-02-01T06:58:18;8.48;;;2.45;;
71572;SDS011;59408;51.032;9.410;2023-02-01T07:00:45;10.68;;;2.67;;
71572;SDS011;59408;51.032;9.410;2023-02-01T07:03:13;8.45;;;2.83;;
71572;SDS011;59408;51.032;9.410;2023-02-01T07:05:39;9.23;;;3.08;;
71572;SDS011;59408;51.032;9.410;2023-02-01T07:08:06;13.03;;;2.80;;
71572;SDS011;59408;51.032;9.410;2023-02-01T07:10:33;12.10;;;3.17;;
71572;SDS011;59408;51.032;9.410;2023-02-01T07:13:00;11.15;;;3.17;;
71572;SDS011;59408;51.032;9.410;2023-02-01T07:15:26;10.32;;;3.38;;
71572;SDS011;59408;51.032;9.410;2023-02-01T07:17:53;8.50;;;3.55;;
71572;SDS011;59408;51.032;9.410;2023-02-01T07:20:22;13.70;;;3.53;;
71572;SDS011;59408;51.032;9.410;2023-02-01T07:22:54;14.15;;;3.42;;
71572;SDS011;59408;51.032;9.410;2023-02-01T07:25:21;11.13;;;3.78;;
71572;SDS011;59408;51.032;9.410;2023-02-01T07:27:48;9.02;;;3.53;;
71572;SDS011;59408;51.032;9.410;2023-02-01T07:30:14;11.90;;;3.25;;
71572;SDS011;59408;51.032;9.410;2023-02-01T07:32:41;12.37;;;2.93;;
71572;SDS011;59408;51.032;9.410;2023-02-01T07:35:08;10.98;;;3.55;;
71572;SDS011;59408;51.032;9.410;2023-02-01T07:37:36;11.65;;;3.65;;
71572;SDS011;59408;51.032;9.410;2023-02-01T07:40:03;13.45;;;3.10;;
71572;SDS011;59408;51.032;9.410;2023-02-01T07:42:30;11.23;;;3.10;;
71572;SDS011;59408;51.032;9.410;2023-02-01T07:44:57;12.17;;;3.50;;
71572;SDS011;59408;51.032;9.410;2023-02-01T07:47:40;13.45;;;3.50;;
71572;SDS011;59408;51.032;9.410;2023-02-01T07:50:07;9.73;;;2.88;;
71572;SDS011;59408;51.032;9.410;2023-02-01T07:52:35;12.27;;;3.30;;
71572;SDS011;59408;51.032;9.410;2023-02-01T07:55:02;12.93;;;3.35;;
71572;SDS011;59408;51.032;9.410;2023-02-01T07:57:29;11.17;;;2.83;;
71572;SDS011;59408;51.032;9.410;2023-02-01T07:59:55;11.40;;;3.70;;
71572;SDS011;59408;51.032;9.410;2023-02-01T08:02:22;12.32;;;3.58;;
71572;SDS011;59408;51.032;9.410;2023-02-01T08:04:48;11.00;;;3.42;;
71572;SDS011;59408;51.032;9.410;2023-02-01T08:07:15;13.13;;;3.95;;
71572;SDS011;59408;51.032;9.410;2023-02-01T08:09:43;13.23;;;3.50;;
71572;SDS011;59408;51.032;9.410;2023-02-01T08:12:09;9.23;;;3.08;;
71572;SDS011;59408;51.032;9.410;2023-02-01T08:14:36;13.45;;;3.72;;
71572;SDS011;59408;51.032;9.410;2023-02-01T08:17:02;7.47;;;3.08;;
71572;SDS011;59408;51.032;9.410;2023-02-01T08:19:29;12.85;;;3.30;;
71572;SDS011;59408;51.032;9.410;2023-02-01T08:21:56;10.00;;;3.40;;
71572;SDS011;59408;51.032;9.410;2023-02-01T08:24:22;11.43;;;3.10;;
71572;SDS011;59408;51.032;9.410;2023-02-01T08:26:51;11.93;;;3.58;;
71572;SDS011;59408;51.032;9.410;2023-02-01T08:29:17;13.25;;;3.45;;
71572;SDS011;59408;51.032;9.410;2023-02-01T08:31:44;10.43;;;3.05;;
71572;SDS011;59408;51.032;9.410;2023-02-01T08:34:10;9.03;;;3.10;;
71572;SDS011;59408;51.032;9.410;2023-02-01T08:36:37;11.07;;;3.45;;
71572;SDS011;59408;51.032;9.410;2023-02-01T08:39:03;9.73;;;3.10;;
71572;SDS011;59408;51.032;9.410;2023-02-01T08:41:30;13.13;;;3.65;;
71572;SDS011;59408;51.032;9.410;2023-02-01T08:43:58;10.75;;;3.40;;
71572;SDS011;59408;51.032;9.410;2023-02-01T08:46:25;9.40;;;2.87;;
71572;SDS011;59408;51.032;9.410;2023-02-01T08:48:51;9.60;;;3.08;;
71572;SDS011;59408;51.032;9.410;2023-02-01T08:51:19;11.50;;;3.33;;
71572;SDS011;59408;51.032;9.410;2023-02-01T08:53:47;14.40;;;4.50;;
71572;SDS011;59408;51.032;9.410;2023-02-01T08:56:15;10.15;;;4.18;;
71572;SDS011;59408;51.032;9.410;2023-02-01T08:58:42;13.97;;;4.70;;
71572;SDS011;59408;51.032;9.410;2023-02-01T09:01:11;11.70;;;4.35;;
71572;SDS011;59408;51.032;9.410;2023-02-01T09:03:40;20.58;;;7.40;;
71572;SDS011;59408;51.032;9.410;2023-02-01T09:06:07;12.45;;;3.90;;
71572;SDS011;59408;51.032;9.410;2023-02-01T09:08:35;11.38;;;4.43;;
71572;SDS011;59408;51.032;9.410;2023-02-01T09:11:03;12.47;;;4.63;;
71572;SDS011;59408;51.032;9.410;2023-02-01T09:13:31;10.50;;;3.70;;
71572;SDS011;59408;51.032;9.410;2023-02-01T09:15:58;13.02;;;3.83;;
71572;SDS011;59408;51.032;9.410;2023-02-01T09:18:26;13.25;;;3.85;;
71572;SDS011;59408;51.032;9.410;2023-02-01T09:20:53;11.98;;;3.50;;
71572;SDS011;59408;51.032;9.410;2023-02-01T09:23:20;11.13;;;2.90;;
71572;SDS011;59408;51.032;9.410;2023-02-01T09:25:46;12.25;;;3.25;;
71572;SDS011;59408;51.032;9.410;2023-02-01T09:28:13;14.52;;;3.47;;
71572;SDS011;59408;51.032;9.410;2023-02-01T09:30:40;13.70;;;4.53;;
71572;SDS011;59408;51.032;9.410;2023-02-01T09:33:06;12.88;;;4.07;;
71572;SDS011;59408;51.032;9.410;2023-02-01T09:35:34;16.60;;;5.33;;
71572;SDS011;59408;51.032;9.410;2023-02-01T09:38:01;9.73;;;3.15;;
71572;SDS011;59408;51.032;9.410;2023-02-01T09:40:27;14.02;;;4.35;;
71572;SDS011;59408;51.032;9.410;2023-02-01T09:42:58;18.02;;;4.55;;
71572;SDS011;59408;51.032;9.410;2023-02-01T09:45:41;12.05;;;3.78;;
71572;SDS011;59408;51.032;9.410;2023-02-01T09:48:13;9.03;;;3.17;;
71572;SDS011;59408;51.032;9.410;2023-02-01T09:50:45;11.40;;;3.70;;
71572;SDS011;59408;51.032;9.410;2023-02-01T09:53:15;10.88;;;3.53;;
71572;SDS011;59408;51.032;9.410;2023-02-01T09:55:48;11.32;;;3.72;;
71572;SDS011;59408;51.032;9.410;2023-02-01T09:58:17;12.10;;;3.83;;
71572;SDS011;59408;51.032;9.410;2023-02-01T10:00:50;8.73;;;2.90;;
71572;SDS011;59408;51.032;9.410;2023-02-01T10:03:18;12.50;;;3.30;;
71572;SDS011;59408;51.032;9.410;2023-02-01T10:06:04;10.43;;;3.33;;
71572;SDS011;59408;51.032;9.410;2023-02-01T10:08:42;11.95;;;3.38;;
71572;SDS011;59408;51.032;9.410;2023-02-01T10:11:25;10.38;;;3.55;;
71572;SDS011;59408;51.032;9.410;2023-02-01T10:13:59;12.20;;;4.00;;
71572;SDS011;59408;51.032;9.410;2023-02-01T10:16:37;11.60;;;3.42;;
71572;SDS011;59408;51.032;9.410;2023-02-01T10:19:20;9.57;;;3.33;;
71572;SDS011;59408;51.032;9.410;2023-02-01T10:21:58;10.05;;;3.20;;
71572;SDS011;59408;51.032;9.410;2023-02-01T10:27:19;9.30;;;3.60;;
71572;SDS011;59408;51.032;9.410;2023-02-01T10:29:49;9.60;;;3.33;;
71572;SDS011;59408;51.032;9.410;2023-02-01T10:32:21;8.10;;;3.28;;
71572;SDS011;59408;51.032;9.410;2023-02-01T10:34:49;9.75;;;3.25;;
71572;SDS011;59408;51.032;9.410;2023-02-01T10:37:27;8.85;;;3.58;;
71572;SDS011;59408;51.032;9.410;2023-02-01T10:39:55;11.53;;;3.60;;
71572;SDS011;59408;51.032;9.410;2023-02-01T10:42:25;10.63;;;4.00;;
71572;SDS011;59408;51.032;9.410;2023-02-01T10:44:54;14.20;;;3.78;;
71572;SDS011;59408;51.032;9.410;2023-02-01T10:47:24;13.02;;;3.80;;
71572;SDS011;59408;51.032;9.410;2023-02-01T10:49:52;11.50;;;3.72;;
71572;SDS011;59408;51.032;9.410;2023-02-01T10:52:28;11.63;;;3.80;;
71572;SDS011;59408;51.032;9.410;2023-02-01T10:58:06;12.55;;;3.25;;
71572;SDS011;59408;51.032;9.410;2023-02-01T11:00:45;10.13;;;3.35;;
71572;SDS011;59408;51.032;9.410;2023-02-01T11:03:30;11.40;;;4.65;;
71572;SDS011;59408;51.032;9.410;2023-02-01T11:06:00;14.77;;;3.93;;
71572;SDS011;59408;51.032;9.410;2023-02-01T11:08:29;13.45;;;4.57;;
71572;SDS011;59408;51.032;9.410;2023-02-01T11:10:59;14.02;;;4.50;;
71572;SDS011;59408;51.032;9.410;2023-02-01T11:13:28;13.50;;;3.90;;
71572;SDS011;59408;51.032;9.410;2023-02-01T11:15:56;15.80;;;4.78;;
71572;SDS011;59408;51.032;9.410;2023-02-01T11:18:25;10.27;;;3.80;;
71572;SDS011;59408;51.032;9.410;2023-02-01T11:20:54;8.98;;;3.60;;
71572;SDS011;59408;51.032;9.410;2023-02-01T11:23:21;11.68;;;3.50;;
71572;SDS011;59408;51.032;9.410;2023-02-01T11:25:52;12.48;;;3.65;;
71572;SDS011;59408;51.032;9.410;2023-02-01T11:28:21;12.95;;;3.90;;
71572;SDS011;59408;51.032;9.410;2023-02-01T11:30:49;12.47;;;4.30;;
71572;SDS011;59408;51.032;9.410;2023-02-01T11:33:20;10.80;;;3.60;;
71572;SDS011;59408;51.032;9.410;2023-02-01T11:35:51;8.00;;;3.15;;
71572;SDS011;59408;51.032;9.410;2023-02-01T11:38:20;10.70;;;3.30;;
71572;SDS011;59408;51.032;9.410;2023-02-01T11:40:48;9.27;;;3.22;;
71572;SDS011;59408;51.032;9.410;2023-02-01T11:43:17;9.73;;;3.17;;
71572;SDS011;59408;51.032;9.410;2023-02-01T11:45:56;9.35;;;2.78;;
71572;SDS011;59408;51.032;9.410;2023-02-01T11:48:24;9.32;;;3.45;;
71572;SDS011;59408;51.032;9.410;2023-02-01T11:50:56;7.88;;;3.33;;
71572;SDS011;59408;51.032;9.410;2023-02-01T11:53:36;14.68;;;3.30;;
71572;SDS011;59408;51.032;9.410;2023-02-01T11:56:15;11.93;;;3.00;;
71572;SDS011;59408;51.032;9.410;2023-02-01T11:59:03;11.95;;;2.83;;
71572;SDS011;59408;51.032;9.410;2023-02-01T12:07:34;9.25;;;3.20;;
71572;SDS011;59408;51.032;9.410;2023-02-01T12:10:18;12.57;;;2.83;;
71572;SDS011;59408;51.032;9.410;2023-02-01T12:12:57;10.23;;;3.15;;
71572;SDS011;59408;51.032;9.410;2023-02-01T12:15:35;9.05;;;3.00;;
71572;SDS011;59408;51.032;9.410;2023-02-01T12:18:17;10.40;;;2.75;;
71572;SDS011;59408;51.032;9.410;2023-02-01T12:21:01;9.77;;;3.40;;
71572;SDS011;59408;51.032;9.410;2023-02-01T12:23:41;12.00;;;3.30;;
71572;SDS011;59408;51.032;9.410;2023-02-01T12:26:25;8.32;;;3.00;;
71572;SDS011;59408;51.032;9.410;2023-02-01T12:29:11;8.10;;;2.90;;
71572;SDS011;59408;51.032;9.410;2023-02-01T12:32:02;9.35;;;2.95;;
71572;SDS011;59408;51.032;9.410;2023-02-01T12:37:39;10.33;;;3.03;;
71572;SDS011;59408;51.032;9.410;2023-02-01T12:40:18;11.57;;;3.20;;
71572;SDS011;59408;51.032;9.410;2023-02-01T12:42:57;10.27;;;3.35;;
71572;SDS011;59408;51.032;9.410;2023-02-01T12:45:30;9.65;;;3.25;;
71572;SDS011;59408;51.032;9.410;2023-02-01T12:48:02;11.48;;;3.45;;
71572;SDS011;59408;51.032;9.410;2023-02-01T12:50:41;8.17;;;3.20;;
71572;SDS011;59408;51.032;9.410;2023-02-01T12:53:12;11.48;;;3.80;;
71572;SDS011;59408;51.032;9.410;2023-02-01T12:55:44;7.60;;;3.22;;
71572;SDS011;59408;51.032;9.410;2023-02-01T12:58:17;9.65;;;3.00;;
71572;SDS011;59408;51.032;9.410;2023-02-01T13:00:50;12.93;;;3.78;;
71572;SDS011;59408;51.032;9.410;2023-02-01T13:03:33;13.10;;;3.93;;
71572;SDS011;59408;51.032;9.410;2023-02-01T13:06:05;9.65;;;3.30;;
71572;SDS011;59408;51.032;9.410;2023-02-01T13:08:40;12.38;;;3.28;;
71572;SDS011;59408;51.032;9.410;2023-02-01T13:11:12;11.60;;;3.60;;
71572;SDS011;59408;51.032;9.410;2023-02-01T13:13:46;10.60;;;3.60;;
71572;SDS011;59408;51.032;9.410;2023-02-01T13:16:21;10.67;;;4.10;;
71572;SDS011;59408;51.032;9.410;2023-02-01T13:18:54;10.38;;;3.45;;
71572;SDS011;59408;51.032;9.410;2023-02-01T13:21:31;9.05;;;3.30;;
71572;SDS011;59408;51.032;9.410;2023-02-01T13:24:00;10.85;;;3.30;;
71572;SDS011;59408;51.032;9.410;2023-02-01T13:26:26;9.68;;;3.40;;
71572;SDS011;59408;51.032;9.410;2023-02-01T13:28:53;8.87;;;3.30;;
71572;SDS011;59408;51.032;9.410;2023-02-01T13:31:29;13.55;;;3.95;;
71572;SDS011;59408;51.032;9.410;2023-02-01T13:34:30;11.95;;;3.47;;
71572;SDS011;59408;51.032;9.410;2023-02-01T13:37:21;9.35;;;3.45;;
71572;SDS011;59408;51.032;9.410;2023-02-01T13:39:59;10.70;;;3.47;;
71572;SDS011;59408;51.032;9.410;2023-02-01T13:42:41;12.37;;;3.20;;
71572;SDS011;59408;51.032;9.410;2023-02-01T13:45:14;8.13;;;3.20;;
71572;SDS011;59408;51.032;9.410;2023-02-01T13:47:43;7.95;;;3.42;;
71572;SDS011;59408;51.032;9.410;2023-02-01T13:50:19;10.88;;;3.30;;
71572;SDS011;59408;51.032;9.410;2023-02-01T13:52:53;8.13;;;2.78;;
71572;SDS011;59408;51.032;9.410;2023-02-01T13:55:29;9.07;;;3.30;;
71572;SDS011;59408;51.032;9.410;2023-02-01T13:58:06;9.63;;;2.75;;
71572;SDS011;59408;51.032;9.410;2023-02-01T14:00:41;8.07;;;3.22;;
71572;SDS011;59408;51.032;9.410;2023-02-01T14:03:15;7.95;;;2.58;;
71572;SDS011;59408;51.032;9.410;2023-02-01T14:05:55;9.57;;;2.88;;
71572;SDS011;59408;51.032;9.410;2023-02-01T14:08:43;8.50;;;2.43;;
71572;SDS011;59408;51.032;9.410;2023-02-01T14:14:02;6.78;;;2.50;;
71572;SDS011;59408;51.032;9.410;2023-02-01T14:23:14;7.40;;;3.10;;
71572;SDS011;59408;51.032;9.410;2023-02-01T14:25:43;7.65;;;2.45;;
71572;SDS011;59408;51.032;9.410;2023-02-01T14:28:12;8.95;;;2.78;;
71572;SDS011;59408;51.032;9.410;2023-02-01T14:30:49;7.78;;;2.42;;
71572;SDS011;59408;51.032;9.410;2023-02-01T14:33:18;8.35;;;2.70;;
71572;SDS011;59408;51.032;9.410;2023-02-01T14:35:55;7.90;;;2.60;;
71572;SDS011;59408;51.032;9.410;2023-02-01T14:38:29;8.57;;;3.15;;
71572;SDS011;59408;51.032;9.410;2023-02-01T14:41:10;8.05;;;2.80;;
71572;SDS011;59408;51.032;9.410;2023-02-01T14:43:49;8.88;;;3.17;;
71572;SDS011;59408;51.032;9.410;2023-02-01T14:46:17;11.00;;;2.83;;
71572;SDS011;59408;51.032;9.410;2023-02-01T14:48:45;7.37;;;2.63;;
71572;SDS011;59408;51.032;9.410;2023-02-01T14:51:14;8.35;;;2.65;;
71572;SDS011;59408;51.032;9.410;2023-02-01T14:53:44;9.20;;;2.70;;
71572;SDS011;59408;51.032;9.410;2023-02-01T14:56:13;9.32;;;2.85;;
71572;SDS011;59408;51.032;9.410;2023-02-01T14:58:44;9.68;;;2.67;;
71572;SDS011;59408;51.032;9.410;2023-02-01T15:01:16;9.53;;;2.80;;
71572;SDS011;59408;51.032;9.410;2023-02-01T15:03:55;9.20;;;3.13;;
71572;SDS011;59408;51.032;9.410;2023-02-01T15:06:30;8.65;;;2.50;;
71572;SDS011;59408;51.032;9.410;2023-02-01T15:09:02;6.65;;;2.70;;
71572;SDS011;59408;51.032;9.410;2023-02-01T15:11:30;7.78;;;2.90;;
71572;SDS011;59408;51.032;9.410;2023-02-01T15:13:57;6.60;;;2.83;;
71572;SDS011;59408;51.032;9.410;2023-02-01T15:16:24;8.40;;;2.85;;
71572;SDS011;59408;51.032;9.410;2023-02-01T15:19:06;9.15;;;3.67;;
71572;SDS011;59408;51.032;9.410;2023-02-01T15:21:45;9.00;;;3.10;;
71572;SDS011;59408;51.032;9.410;2023-02-01T15:24:17;8.35;;;3.40;;
71572;SDS011;59408;51.032;9.410;2023-02-01T15:26:46;9.63;;;3.60;;
71572;SDS011;59408;51.032;9.410;2023-02-01T15:29:14;7.78;;;3.28;;